createdAt,value
2022-07-30T00:00:27.701Z,24.04
2022-07-30T00:02:56.211Z,23.99
2022-07-30T00:05:24.325Z,23.85
2022-07-30T00:07:52.346Z,23.99
2022-07-30T00:10:23.141Z,24.16
2022-07-30T00:12:51.521Z,24.14
2022-07-30T00:15:19.678Z,24.15
2022-07-30T00:17:49.306Z,24.18
2022-07-30T00:20:18.491Z,24.00
2022-07-30T00:22:46.913Z,24.07
2022-07-30T00:25:15.027Z,24.17
2022-07-30T00:27:45.449Z,24.13
2022-07-30T00:30:13.966Z,24.17
2022-07-30T00:32:42.197Z,23.94
2022-07-30T00:35:11.481Z,23.93
2022-07-30T00:37:39.490Z,24.00
2022-07-30T00:40:09.786Z,23.93
2022-07-30T00:42:39.338Z,23.93
2022-07-30T00:45:10.797Z,23.94
2022-07-30T00:47:39.874Z,23.99
2022-07-30T00:50:11.159Z,23.75
2022-07-30T00:52:40.491Z,23.74
2022-07-30T00:55:11.902Z,23.77
2022-07-30T00:57:40.276Z,23.89
2022-07-30T01:00:12.380Z,23.78
2022-07-30T01:02:40.594Z,23.76
2022-07-30T01:05:09.846Z,23.82
2022-07-30T01:07:38.094Z,23.70
2022-07-30T01:10:08.018Z,23.68
2022-07-30T01:12:36.217Z,23.68
2022-07-30T01:15:06.610Z,23.71
2022-07-30T01:17:37.044Z,23.65
2022-07-30T01:20:07.065Z,23.63
2022-07-30T01:22:46.756Z,23.44
2022-07-30T01:25:22.098Z,23.55
2022-07-30T01:27:54.662Z,23.49
2022-07-30T01:30:26.574Z,23.61
2022-07-30T01:32:57.458Z,23.51
2022-07-30T01:35:28.888Z,23.66
2022-07-30T01:37:58.673Z,23.50
2022-07-30T01:40:29.175Z,23.60
2022-07-30T01:43:01.347Z,23.55
2022-07-30T01:45:31.211Z,23.60
2022-07-30T01:48:06.548Z,23.47
2022-07-30T01:50:36.632Z,23.45
2022-07-30T01:53:05.701Z,23.33
2022-07-30T01:55:38.156Z,23.17
2022-07-30T01:58:09.981Z,23.29
2022-07-30T02:00:41.359Z,23.22
2022-07-30T02:03:09.657Z,22.90
2022-07-30T02:05:39.176Z,22.83
2022-07-30T02:08:14.185Z,22.77
2022-07-30T02:10:45.279Z,22.72
2022-07-30T02:13:18.987Z,22.63
2022-07-30T02:15:52.470Z,22.71
2022-07-30T02:18:24.675Z,22.98
2022-07-30T02:20:59.893Z,22.83
2022-07-30T02:23:32.253Z,22.89
2022-07-30T02:26:01.346Z,22.87
2022-07-30T02:28:34.359Z,22.87
2022-07-30T02:31:02.846Z,22.74
2022-07-30T02:33:50.336Z,22.86
2022-07-30T02:36:21.118Z,22.77
2022-07-30T02:38:52.026Z,22.71
2022-07-30T02:41:23.400Z,22.69
2022-07-30T02:43:54.766Z,22.64
2022-07-30T02:46:25.196Z,22.76
2022-07-30T02:48:56.022Z,22.62
2022-07-30T02:51:25.813Z,22.46
2022-07-30T02:53:56.281Z,22.31
2022-07-30T02:56:25.833Z,22.48
2022-07-30T02:58:56.872Z,22.48
2022-07-30T03:01:26.091Z,22.46
2022-07-30T03:03:55.519Z,22.41
2022-07-30T03:06:25.648Z,22.32
2022-07-30T03:08:55.775Z,22.47
2022-07-30T03:11:25.946Z,22.21
2022-07-30T03:13:55.369Z,22.35
2022-07-30T03:16:26.303Z,22.37
2022-07-30T03:18:56.030Z,22.32
2022-07-30T03:21:27.494Z,22.35
2022-07-30T03:23:58.134Z,22.24
2022-07-30T03:26:28.273Z,22.17
2022-07-30T03:28:58.692Z,22.08
2022-07-30T03:31:28.571Z,22.22
2022-07-30T03:34:06.383Z,22.18
2022-07-30T03:36:35.026Z,22.06
2022-07-30T03:39:05.327Z,21.75
2022-07-30T03:41:34.681Z,21.70
2022-07-30T03:44:04.844Z,21.69
2022-07-30T03:46:33.477Z,21.50
2022-07-30T03:49:01.989Z,21.34
2022-07-30T03:51:32.955Z,21.63
2022-07-30T03:54:02.793Z,21.88
2022-07-30T03:56:31.326Z,21.70
2022-07-30T03:58:59.443Z,21.64
2022-07-30T04:01:29.098Z,21.58
2022-07-30T04:03:57.360Z,21.65
2022-07-30T04:06:25.410Z,21.59
2022-07-30T04:08:53.409Z,21.42
2022-07-30T04:11:21.574Z,21.44
2022-07-30T04:14:09.987Z,21.38
2022-07-30T04:16:46.181Z,21.36
2022-07-30T04:19:20.883Z,21.42
2022-07-30T04:21:50.826Z,21.61
2022-07-30T04:24:21.404Z,21.64
2022-07-30T04:26:51.418Z,21.73
2022-07-30T04:29:24.310Z,21.76
2022-07-30T04:31:55.550Z,21.66
2022-07-30T04:34:23.557Z,21.75
2022-07-30T04:36:51.470Z,21.87
2022-07-30T04:39:19.746Z,21.97
2022-07-30T04:41:48.773Z,22.29
2022-07-30T04:44:19.045Z,22.46
2022-07-30T04:46:47.552Z,22.55
2022-07-30T04:49:20.281Z,22.66
2022-07-30T04:51:49.466Z,22.61
2022-07-30T04:54:17.958Z,22.75
2022-07-30T04:56:52.433Z,22.87
2022-07-30T04:59:24.753Z,22.89
2022-07-30T05:01:54.658Z,22.93
2022-07-30T05:04:25.303Z,23.15
2022-07-30T05:06:55.160Z,23.27
2022-07-30T05:09:24.135Z,23.31
2022-07-30T05:11:53.606Z,23.43
2022-07-30T05:14:22.263Z,23.77
2022-07-30T05:16:50.880Z,24.12
2022-07-30T05:19:19.736Z,24.05
2022-07-30T05:21:49.207Z,24.21
2022-07-30T05:24:17.358Z,24.14
2022-07-30T05:26:46.029Z,24.08
2022-07-30T05:29:19.689Z,24.21
2022-07-30T05:31:49.045Z,24.22
2022-07-30T05:34:17.287Z,23.73
2022-07-30T05:36:45.775Z,23.75
2022-07-30T05:39:16.532Z,23.35
2022-07-30T05:41:44.647Z,23.52
2022-07-30T05:44:12.847Z,23.48
2022-07-30T05:46:40.994Z,23.81
2022-07-30T05:49:09.205Z,23.97
2022-07-30T05:51:37.287Z,23.71
2022-07-30T05:54:05.357Z,23.98
2022-07-30T05:56:36.037Z,24.26
2022-07-30T05:59:04.090Z,24.16
2022-07-30T06:01:32.237Z,24.06
2022-07-30T06:04:00.487Z,24.09
2022-07-30T06:06:28.487Z,23.89
2022-07-30T06:08:56.464Z,24.03
2022-07-30T06:11:24.552Z,24.16
2022-07-30T06:13:53.874Z,24.36
2022-07-30T06:16:22.171Z,24.56
2022-07-30T06:18:50.247Z,24.68
2022-07-30T06:21:18.547Z,24.85
2022-07-30T06:23:46.669Z,25.08
2022-07-30T06:26:15.122Z,25.27
2022-07-30T06:28:43.233Z,25.41
2022-07-30T06:31:12.666Z,25.48
2022-07-30T06:33:40.800Z,25.71
2022-07-30T06:36:09.018Z,25.82
2022-07-30T06:38:42.488Z,25.86
2022-07-30T06:41:12.825Z,25.90
2022-07-30T06:43:40.853Z,26.07
2022-07-30T06:46:09.005Z,26.09
2022-07-30T06:48:38.809Z,26.19
2022-07-30T06:51:07.090Z,26.31
2022-07-30T06:53:42.260Z,26.35
2022-07-30T06:56:10.935Z,26.49
2022-07-30T06:58:39.321Z,26.16
2022-07-30T07:01:11.480Z,26.30
2022-07-30T07:03:41.067Z,26.44
2022-07-30T07:06:09.421Z,26.44
2022-07-30T07:08:37.843Z,26.64
2022-07-30T07:11:06.016Z,26.70
2022-07-30T07:13:34.188Z,26.82
2022-07-30T07:16:02.506Z,26.86
2022-07-30T07:18:30.819Z,26.93
2022-07-30T07:21:00.201Z,26.93
2022-07-30T07:23:41.974Z,27.09
2022-07-30T07:26:11.523Z,27.16
2022-07-30T07:28:41.445Z,27.22
2022-07-30T07:31:09.921Z,27.01
2022-07-30T07:33:39.491Z,27.19
2022-07-30T07:36:09.176Z,27.19
2022-07-30T07:38:37.893Z,27.07
2022-07-30T07:41:06.538Z,27.02
2022-07-30T07:43:34.595Z,27.06
2022-07-30T07:46:02.763Z,27.22
2022-07-30T07:48:30.955Z,27.26
2022-07-30T07:51:00.586Z,27.23
2022-07-30T07:53:30.385Z,27.49
2022-07-30T07:55:58.857Z,27.68
2022-07-30T07:58:26.968Z,27.47
2022-07-30T08:00:55.795Z,27.47
2022-07-30T08:03:24.052Z,27.74
2022-07-30T08:05:58.192Z,27.84
2022-07-30T08:08:37.261Z,27.37
2022-07-30T08:11:07.077Z,27.61
2022-07-30T08:13:52.050Z,27.76
2022-07-30T08:16:21.002Z,27.95
2022-07-30T08:18:49.116Z,27.96
2022-07-30T08:21:17.386Z,27.82
2022-07-30T08:23:46.808Z,27.76
2022-07-30T08:26:15.002Z,27.97
2022-07-30T08:28:45.679Z,27.87
2022-07-30T08:31:14.066Z,27.85
2022-07-30T08:33:42.004Z,28.03
2022-07-30T08:36:10.474Z,28.28
2022-07-30T08:38:39.557Z,28.49
2022-07-30T08:41:09.298Z,28.10
2022-07-30T08:43:38.291Z,28.04
2022-07-30T08:46:10.160Z,28.26
2022-07-30T08:48:38.891Z,28.43
2022-07-30T08:51:07.638Z,28.55
2022-07-30T08:53:36.418Z,28.52
2022-07-30T08:56:06.189Z,28.68
2022-07-30T08:58:36.145Z,28.65
2022-07-30T09:01:05.301Z,28.65
2022-07-30T09:03:33.818Z,28.63
2022-07-30T09:06:03.425Z,28.85
2022-07-30T09:08:32.215Z,28.93
2022-07-30T09:11:00.831Z,29.08
2022-07-30T09:13:31.621Z,29.29
2022-07-30T09:16:02.784Z,29.46
2022-07-30T09:18:32.977Z,29.41
2022-07-30T09:21:03.124Z,29.62
2022-07-30T09:23:31.265Z,29.76
2022-07-30T09:26:00.631Z,29.77
2022-07-30T09:28:33.389Z,29.92
2022-07-30T09:31:02.830Z,30.08
2022-07-30T09:33:36.418Z,30.07
2022-07-30T09:36:07.000Z,30.17
2022-07-30T09:38:47.754Z,30.07
2022-07-30T09:41:37.800Z,30.25
2022-07-30T09:44:06.393Z,30.57
2022-07-30T09:46:47.722Z,30.29
2022-07-30T09:49:17.688Z,30.33
2022-07-30T09:51:56.250Z,30.39
2022-07-30T09:54:51.720Z,30.39
2022-07-30T09:57:26.470Z,30.45
2022-07-30T09:59:57.412Z,30.92
2022-07-30T10:02:33.972Z,31.07
2022-07-30T10:05:14.289Z,31.31
2022-07-30T10:07:51.157Z,30.85
2022-07-30T10:10:25.713Z,30.89
2022-07-30T10:12:56.311Z,30.83
2022-07-30T10:15:26.365Z,30.72
2022-07-30T10:17:58.097Z,30.86
2022-07-30T10:20:27.306Z,30.93
2022-07-30T10:22:56.250Z,30.98
2022-07-30T10:25:28.378Z,31.29
2022-07-30T10:27:57.224Z,31.35
2022-07-30T10:30:28.094Z,31.34
2022-07-30T10:33:01.581Z,31.25
2022-07-30T10:35:34.492Z,31.13
2022-07-30T10:38:13.671Z,31.24
2022-07-30T10:40:49.629Z,31.36
2022-07-30T10:43:58.216Z,31.20
2022-07-30T10:46:44.130Z,31.34
2022-07-30T10:49:19.038Z,31.48
2022-07-30T10:51:49.407Z,31.40
2022-07-30T10:54:39.784Z,31.62
2022-07-30T10:57:15.085Z,31.85
2022-07-30T11:00:15.254Z,31.65
2022-07-30T11:03:14.855Z,31.46
2022-07-30T11:05:46.185Z,31.51
2022-07-30T11:08:36.271Z,31.51
2022-07-30T11:11:19.167Z,31.78
2022-07-30T11:13:55.313Z,31.61
2022-07-30T11:16:24.696Z,31.69
2022-07-30T11:19:27.405Z,31.72
2022-07-30T11:22:26.289Z,31.68
2022-07-30T11:24:55.047Z,31.86
2022-07-30T11:27:37.511Z,32.00
2022-07-30T11:30:08.188Z,31.94
2022-07-30T11:32:36.899Z,32.25
2022-07-30T11:35:23.023Z,32.26
2022-07-30T11:38:07.013Z,32.40
2022-07-30T11:40:37.717Z,32.34
2022-07-30T11:43:35.261Z,32.28
2022-07-30T11:46:10.310Z,32.38
2022-07-30T11:48:40.723Z,32.51
2022-07-30T11:51:08.959Z,32.51
2022-07-30T11:53:38.843Z,32.33
2022-07-30T11:56:09.511Z,32.36
2022-07-30T11:58:41.939Z,32.62
2022-07-30T12:01:14.726Z,32.60
2022-07-30T12:03:44.278Z,32.79
2022-07-30T12:06:18.135Z,32.97
2022-07-30T12:08:50.666Z,33.05
2022-07-30T12:11:20.813Z,33.07
2022-07-30T12:13:59.571Z,32.87
2022-07-30T12:16:28.664Z,32.97
2022-07-30T12:18:56.883Z,32.96
2022-07-30T12:21:26.151Z,32.88
2022-07-30T12:24:00.604Z,32.97
2022-07-30T12:26:30.105Z,33.17
2022-07-30T12:28:59.442Z,33.01
2022-07-30T12:31:27.970Z,33.21
2022-07-30T12:33:58.892Z,33.50
2022-07-30T12:36:32.109Z,33.63
2022-07-30T12:39:02.493Z,33.72
2022-07-30T12:41:43.873Z,33.79
2022-07-30T12:44:12.047Z,33.85
2022-07-30T12:46:42.267Z,33.83
2022-07-30T12:49:21.476Z,33.78
2022-07-30T12:51:59.696Z,33.67
2022-07-30T12:54:30.065Z,33.63
2022-07-30T12:57:00.674Z,33.76
2022-07-30T12:59:29.991Z,33.71
2022-07-30T13:02:00.625Z,33.62
2022-07-30T13:04:29.282Z,33.85
2022-07-30T13:07:08.292Z,33.99
2022-07-30T13:09:38.475Z,34.09
2022-07-30T13:12:07.397Z,34.08
2022-07-30T13:14:35.857Z,33.98
2022-07-30T13:17:04.660Z,34.05
2022-07-30T13:19:33.016Z,33.76
2022-07-30T13:22:01.273Z,33.95
2022-07-30T13:24:29.514Z,34.12
2022-07-30T13:26:58.802Z,34.04
2022-07-30T13:29:26.809Z,34.05
2022-07-30T13:31:54.800Z,33.91
2022-07-30T13:34:22.806Z,34.06
2022-07-30T13:36:50.878Z,34.02
2022-07-30T13:39:21.359Z,34.21
2022-07-30T13:41:49.374Z,34.37
2022-07-30T13:44:18.755Z,34.38
2022-07-30T13:46:46.695Z,34.31
2022-07-30T13:49:14.695Z,34.28
2022-07-30T13:51:43.328Z,34.36
2022-07-30T13:54:13.908Z,34.29
2022-07-30T13:56:42.198Z,34.33
2022-07-30T13:59:10.800Z,34.42
2022-07-30T14:01:40.298Z,34.50
2022-07-30T14:04:08.939Z,34.41
2022-07-30T14:06:36.917Z,34.34
2022-07-30T14:09:05.185Z,34.39
2022-07-30T14:11:33.202Z,34.30
2022-07-30T14:14:01.291Z,34.26
2022-07-30T14:16:44.647Z,34.19
2022-07-30T14:19:23.146Z,34.30
2022-07-30T14:21:53.073Z,34.35
2022-07-30T14:24:22.221Z,33.93
2022-07-30T14:26:57.419Z,33.76
2022-07-30T14:29:26.180Z,33.69
2022-07-30T14:31:54.319Z,33.86
2022-07-30T14:34:24.222Z,33.74
2022-07-30T14:36:52.349Z,33.74
2022-07-30T14:39:20.956Z,33.80
2022-07-30T14:41:52.341Z,33.85
2022-07-30T14:44:24.390Z,34.06
2022-07-30T14:46:53.047Z,34.15
2022-07-30T14:49:23.957Z,33.89
2022-07-30T14:51:52.625Z,33.92
2022-07-30T14:54:20.988Z,33.84
2022-07-30T14:56:49.125Z,33.98
2022-07-30T14:59:18.007Z,34.07
2022-07-30T15:01:47.933Z,34.19
2022-07-30T15:04:16.065Z,34.24
2022-07-30T15:06:45.456Z,34.25
2022-07-30T15:09:13.469Z,33.90
2022-07-30T15:12:07.748Z,33.88
2022-07-30T15:14:29.587Z,33.79
2022-07-30T15:17:03.452Z,33.83
2022-07-30T15:19:32.133Z,33.40
2022-07-30T15:22:02.905Z,33.18
2022-07-30T15:24:32.000Z,33.03
2022-07-30T15:27:00.224Z,32.81
2022-07-30T15:29:30.188Z,32.88
2022-07-30T15:32:00.269Z,32.91
2022-07-30T15:34:29.927Z,32.90
2022-07-30T15:36:58.104Z,32.92
2022-07-30T15:39:29.521Z,33.05
2022-07-30T15:41:58.290Z,33.06
2022-07-30T15:44:26.383Z,33.29
2022-07-30T15:46:57.082Z,33.40
2022-07-30T15:49:25.092Z,33.36
2022-07-30T15:51:53.338Z,33.02
2022-07-30T15:54:23.209Z,33.16
2022-07-30T15:56:54.610Z,33.21
2022-07-30T15:59:29.902Z,33.12
2022-07-30T16:01:58.014Z,33.13
2022-07-30T16:04:31.845Z,33.09
2022-07-30T16:07:00.752Z,33.12
2022-07-30T16:09:29.011Z,33.29
2022-07-30T16:11:58.993Z,33.49
2022-07-30T16:14:27.777Z,33.47
2022-07-30T16:16:56.533Z,33.40
2022-07-30T16:19:24.518Z,33.51
2022-07-30T16:21:52.685Z,33.15
2022-07-30T16:24:20.723Z,33.13
2022-07-30T16:26:48.965Z,32.92
2022-07-30T16:29:18.989Z,32.96
2022-07-30T16:31:47.696Z,33.00
2022-07-30T16:34:15.729Z,33.08
2022-07-30T16:36:44.090Z,33.10
2022-07-30T16:39:12.174Z,33.10
2022-07-30T16:41:41.230Z,33.19
2022-07-30T16:44:09.455Z,33.13
2022-07-30T16:46:38.901Z,33.20
2022-07-30T16:49:07.517Z,33.14
2022-07-30T16:51:35.609Z,33.16
2022-07-30T16:54:03.780Z,33.06
2022-07-30T16:56:32.263Z,32.97
2022-07-30T16:59:00.306Z,32.89
2022-07-30T17:01:28.852Z,32.83
2022-07-30T17:03:58.871Z,32.62
2022-07-30T17:06:27.276Z,32.47
2022-07-30T17:08:55.703Z,32.43
2022-07-30T17:11:47.187Z,32.37
2022-07-30T17:14:12.493Z,32.30
2022-07-30T17:16:40.521Z,32.18
2022-07-30T17:19:10.090Z,32.19
2022-07-30T17:21:39.081Z,32.14
2022-07-30T17:24:11.451Z,32.09
2022-07-30T17:26:41.924Z,32.00
2022-07-30T17:29:13.909Z,31.98
2022-07-30T17:31:44.415Z,31.87
2022-07-30T17:34:18.268Z,31.84
2022-07-30T17:36:52.181Z,31.84
2022-07-30T17:40:27.183Z,31.77
2022-07-30T17:42:09.975Z,31.64
2022-07-30T17:44:39.275Z,31.56
2022-07-30T17:47:12.313Z,31.48
2022-07-30T17:49:43.789Z,31.41
2022-07-30T17:52:11.827Z,31.36
2022-07-30T17:54:40.036Z,31.29
2022-07-30T17:57:08.088Z,31.27
2022-07-30T17:59:36.071Z,31.19
2022-07-30T18:02:05.580Z,31.11
2022-07-30T18:04:34.990Z,31.08
2022-07-30T18:07:04.700Z,31.04
2022-07-30T18:09:39.269Z,30.78
2022-07-30T18:12:09.100Z,30.72
2022-07-30T18:14:37.420Z,30.75
2022-07-30T18:17:05.653Z,30.73
2022-07-30T18:19:33.776Z,30.75
2022-07-30T18:22:02.287Z,30.73
2022-07-30T18:24:32.677Z,30.70
2022-07-30T18:27:00.759Z,30.63
2022-07-30T18:29:28.851Z,30.35
2022-07-30T18:31:56.927Z,30.47
2022-07-30T18:34:25.094Z,30.47
2022-07-30T18:36:53.322Z,30.48
2022-07-30T18:39:21.458Z,30.44
2022-07-30T18:41:53.522Z,30.42
2022-07-30T18:44:22.202Z,30.44
2022-07-30T18:46:50.224Z,30.38
2022-07-30T18:49:36.212Z,30.43
2022-07-30T18:52:07.390Z,30.36
2022-07-30T18:54:36.401Z,30.36
2022-07-30T18:57:11.263Z,30.31
2022-07-30T18:59:42.990Z,30.28
2022-07-30T19:02:13.342Z,30.28
2022-07-30T19:04:41.435Z,30.29
2022-07-30T19:07:09.618Z,30.28
2022-07-30T19:09:37.632Z,30.27
2022-07-30T19:12:07.618Z,30.17
2022-07-30T19:14:35.713Z,29.95
2022-07-30T19:17:03.809Z,29.29
2022-07-30T19:19:42.325Z,28.86
2022-07-30T19:22:10.964Z,28.70
2022-07-30T19:24:39.230Z,28.96
2022-07-30T19:27:13.679Z,28.92
2022-07-30T19:29:43.506Z,28.92
2022-07-30T19:32:12.234Z,29.01
2022-07-30T19:34:41.062Z,29.10
2022-07-30T19:37:09.291Z,29.20
2022-07-30T19:39:37.338Z,29.24
2022-07-30T19:42:29.091Z,29.32
2022-07-30T19:44:58.766Z,29.42
2022-07-30T19:47:29.537Z,29.48
2022-07-30T19:50:10.254Z,29.50
2022-07-30T19:52:39.829Z,29.46
2022-07-30T19:55:30.502Z,29.16
2022-07-30T19:57:58.377Z,28.88
2022-07-30T20:00:26.359Z,28.71
2022-07-30T20:02:54.407Z,28.87
2022-07-30T20:05:24.844Z,28.77
2022-07-30T20:07:53.319Z,28.67
2022-07-30T20:10:23.932Z,28.56
2022-07-30T20:12:52.230Z,28.39
2022-07-30T20:15:21.872Z,28.58
2022-07-30T20:17:49.964Z,28.78
2022-07-30T20:20:26.341Z,28.46
2022-07-30T20:22:54.678Z,28.57
2022-07-30T20:25:22.758Z,28.56
2022-07-30T20:27:51.237Z,28.41
2022-07-30T20:30:25.020Z,28.20
2022-07-30T20:32:54.824Z,28.11
2022-07-30T20:35:24.060Z,28.17
2022-07-30T20:37:55.690Z,28.41
2022-07-30T20:40:26.649Z,28.58
2022-07-30T20:42:55.328Z,28.61
2022-07-30T20:45:24.512Z,28.65
2022-07-30T20:47:56.719Z,28.48
2022-07-30T20:50:30.739Z,28.54
2022-07-30T20:52:59.849Z,28.47
2022-07-30T20:55:28.147Z,28.20
2022-07-30T20:58:06.982Z,28.23
2022-07-30T21:00:42.228Z,28.30
2022-07-30T21:03:21.516Z,28.17
2022-07-30T21:05:51.247Z,27.87
2022-07-30T21:08:24.998Z,27.51
2022-07-30T21:10:56.277Z,27.03
2022-07-30T21:13:26.072Z,26.49
2022-07-30T21:16:02.954Z,25.53
2022-07-30T21:18:33.550Z,24.80
2022-07-30T21:21:05.625Z,24.22
2022-07-30T21:23:34.793Z,24.03
2022-07-30T21:26:07.092Z,23.79
2022-07-30T21:28:38.764Z,23.64
2022-07-30T21:31:08.818Z,23.26
2022-07-30T21:33:39.239Z,23.30
2022-07-30T21:36:10.294Z,23.18
2022-07-30T21:38:41.833Z,23.22
2022-07-30T21:41:14.092Z,23.15
2022-07-30T21:43:43.726Z,22.98
2022-07-30T21:46:12.228Z,22.98
2022-07-30T21:48:43.257Z,22.47
2022-07-30T21:51:11.706Z,23.04
2022-07-30T21:53:44.984Z,23.07
2022-07-30T21:56:15.831Z,23.19
2022-07-30T21:58:44.471Z,23.17
2022-07-30T22:01:16.851Z,23.18
2022-07-30T22:04:03.902Z,23.24
2022-07-30T22:06:35.089Z,23.07
2022-07-30T22:09:10.075Z,23.01
2022-07-30T22:11:46.984Z,23.07
2022-07-30T22:14:15.650Z,22.93
2022-07-30T22:16:46.124Z,23.01
2022-07-30T22:19:17.216Z,23.16
2022-07-30T22:21:46.452Z,23.01
2022-07-30T22:24:28.892Z,22.93
2022-07-30T22:27:00.075Z,22.80
2022-07-30T22:29:34.530Z,23.10
2022-07-30T22:32:04.125Z,23.09
2022-07-30T22:34:33.995Z,23.00
2022-07-30T22:37:02.051Z,23.00
2022-07-30T22:39:31.579Z,23.03
2022-07-30T22:42:01.590Z,22.60
2022-07-30T22:44:29.812Z,23.06
2022-07-30T22:46:57.886Z,23.32
2022-07-30T22:49:50.292Z,23.31
2022-07-30T22:52:20.331Z,23.20
2022-07-30T22:54:53.450Z,23.29
2022-07-30T22:57:22.786Z,23.24
2022-07-30T22:59:59.765Z,23.37
2022-07-30T23:02:29.055Z,23.35
2022-07-30T23:04:57.074Z,23.40
2022-07-30T23:07:34.150Z,23.31
2022-07-30T23:10:17.067Z,23.33
2022-07-30T23:12:47.709Z,23.27
2022-07-30T23:15:16.191Z,23.25
2022-07-30T23:17:44.522Z,23.35
2022-07-30T23:20:15.227Z,23.23
2022-07-30T23:22:45.005Z,23.23
2022-07-30T23:25:14.712Z,23.37
2022-07-30T23:27:43.226Z,23.23
2022-07-30T23:30:12.541Z,23.18
2022-07-30T23:32:41.045Z,23.11
2022-07-30T23:35:11.157Z,23.14
2022-07-30T23:37:49.024Z,23.06
2022-07-30T23:40:19.869Z,23.30
2022-07-30T23:42:50.177Z,23.12
2022-07-30T23:45:18.491Z,22.95
2022-07-30T23:47:52.865Z,22.85
2022-07-30T23:50:32.229Z,23.03
2022-07-30T23:53:00.705Z,23.20
2022-07-30T23:55:30.262Z,23.10
2022-07-30T23:57:58.950Z,23.00
